Flight Track Log - Related Links

Times and Time Zones

All times are in EDT time to prevent confusion due to time zone crossing. See the ASQ5452 flight status page for this flight to view local times or setup timezone preferences in your user account.

Time Position Orientation Groundspeed Altitude Reporting Facility
EDT Latitude Longitude Course Direction KTS MPH feet Rate Location/Type
Sat 09:11:35 PM 42.2053 -83.3500 171° South 138 159 1,700  Level Cleveland Center
Sat 09:12:35 PM 42.1642 -83.3414 171° South 171 197 4,700 2,870 Climbing Cleveland Center
Sat 09:13:07 PM 42.1453 -83.3250 147° Southeast 170 196 6,100 2,968 Climbing Cleveland Center
Sat 09:14:08 PM 42.1578 -83.2306 80° East 267 307 9,300 3,148 Climbing Cleveland Center
Sat 09:15:09 PM 42.1869 -83.1239 70° East 311 358 12,500 2,607 Climbing Cleveland Center
Sat 09:16:10 PM 42.2192 -83.0042 70° East 342 394 14,600 2,213 Climbing Cleveland Center
Sat 09:17:11 PM 42.2575 -82.8639 70° East 395 455 17,000 2,607 Climbing Cleveland Center
Sat 09:18:12 PM 42.2614 -82.7078 88° East 422 486 19,900 2,803 Climbing Cleveland Center
Sat 09:19:13 PM 42.2611 -82.5497 90° East 422 486 22,700 2,430 Climbing Cleveland Center
Sat 09:20:13 PM 42.2597 -82.3842 91° East 436 502 24,800 2,331 Climbing Cleveland Center
Sat 09:21:14 PM 42.2586 -82.2175 90° East 443 510 27,400 2,066 Climbing Cleveland Center
Sat 09:22:15 PM 42.2564 -82.0322 91° East 443 510 29,000 836 Climbing Cleveland Center
Sat 09:23:16 PM 42.2547 -81.8461 91° East 485 558 29,100  Climbing Cleveland Center
Sat 09:24:17 PM 42.2517 -81.6506 91° East 513 590 29,000 -49 Descending Cleveland Center
Sat 09:25:18 PM 42.2506 -81.4672 90° East 489 563 29,000  Level Cleveland Center
Sat 09:26:19 PM 42.2458 -81.2869 92° East 480 552 29,000  Level Cleveland Center
Sat 09:27:20 PM 42.2439 -81.1083 91° East 478 550 29,000  Level Cleveland Center
Sat 09:28:21 PM 42.2397 -80.9264 92° East 477 549 29,000  Level Cleveland Center
Sat 09:29:22 PM 42.2369 -80.7433 91° East 480 552 29,000  Level Cleveland Center
Sat 09:30:23 PM 42.2378 -80.5594 90° East 486 559 29,000  Level Cleveland Center
Sat 09:31:24 PM 42.2364 -80.3681 90° East 499 574 29,000  Level Cleveland Center
Sat 09:32:25 PM 42.2339 -80.1778 91° East 503 579 29,000  Level Cleveland Center
Sat 09:33:26 PM 42.2317 -79.9622 91° East 505 581 29,000  Level Cleveland Center
Sat 09:34:27 PM 42.2300 -79.7978 91° East 502 578 29,000  Level Cleveland Center
Sat 09:35:28 PM 42.2278 -79.6089 91° East 504 580 29,000  Level Cleveland Center
Sat 09:36:29 PM 42.2256 -79.4197 91° East 507 583 29,000 -50 Level Cleveland Center
Sat 09:37:29 PM 42.2206 -79.1944 92° East 505 581 28,900 -545 Descending Cleveland Center
Sat 09:38:30 PM 42.2183 -79.0042 91° East 508 585 27,900 -934 Descending Cleveland Center
Sat 09:39:31 PM 42.2158 -78.8075 91° East 506 582 27,000 -787 Descending Cleveland Center
Sat 09:40:32 PM 42.2117 -78.6206 92° East 503 579 26,300 -836 Descending Cleveland Center
Sat 09:41:33 PM 42.2078 -78.4361 92° East 498 573 25,300 -1,475 Descending Cleveland Center
Sat 09:42:34 PM 42.2028 -78.2514 92° East 497 572 23,300 -2,262 Descending Cleveland Center
Sat 09:43:35 PM 42.1983 -78.0717 92° East 490 564 20,700 -2,557 Descending Cleveland Center
Sat 09:44:36 PM 42.1928 -77.8981 92° East 474 545 18,100 -2,361 Descending Cleveland Center
Sat 09:45:37 PM 42.1883 -77.7294 92° East 460 529 15,900 -2,607 Descending Cleveland Center
Sat 09:46:38 PM 42.1833 -77.5694 92° East 437 503 12,800 -2,902 Descending Cleveland Center
Sat 09:47:39 PM 42.1789 -77.4244 92° East 408 470 10,000 -1,587 Descending Cleveland Center
Sat 09:48:39 PM 42.1578 -77.3131 104° East 295 339 9,600 -1,636 Descending Cleveland Center
Sat 09:49:40 PM 42.1275 -77.2083 111° Southeast 253 291 6,700 -2,459 Descending Cleveland Center
Sat 09:50:41 PM 42.1111 -77.1214 104° East 247 284 4,600 -1,672 Descending Cleveland Center
Sat 09:51:42 PM 42.0992 -77.0403 101° East 235 270 3,300 -1,033 Descending Cleveland Center
Sat 09:52:43 PM 42.1081 -76.9794 79° East 207 238 2,500 -590 Descending Cleveland Center
Sat 09:53:44 PM 42.1325 -76.9317 55° Northeast 193 222 2,100 -393 Descending Cleveland Center

Login

Don't have an account? Register now (free) for customized features, flight alerts, and more!